Terminal Aerodrome Forecast
Issued by NWS

Home | Current Version | Previous Version | Text Only | Print | Product List | Glossary On
Versions: 1 2 3 4 5 6 7 8 9 10 11 12
000
FTUS43 KDVN 181700
TAFBRL
TAF
KBRL 181724Z 1818/1918 16010KT P6SM BKN060
      TEMPO 1901/1905 -SHRA BKN035
     FM190500 11005KT P6SM SCT060 OVC100
     FM191100 10005KT 6SM BR OVC060
      TEMPO 1914/1918 5SM SHRA BKN025=

USA.gov is the U.S. government's official web portal to all federal, state and local government web resources and services.